Veuillez saisir l'adresse e-mail associée à votre compte d'utilisateur. Un code de vérification vous sera adressé. Lorsque vous le recevrez, vous pourrez choisir un nouveau mot de passe

METAR TAF

[Source: ADDS]
METAR
LFCR 201100Z AUTO VRB03KT 8000 VV/// 05/05 Q1024 BECMG NSC =
LFBA 201100Z AUTO VRB02KT 1100 1000 R29/1500U BR OVC002 06/05 Q1026 BECMG CAVOK =
LFSL 201100Z AUTO VRB03KT 9999 SCT017 10/05 Q1025 NOSIG =
LFLW 201100Z AUTO VRB02KT CAVOK 09/04 Q1024 NOSIG =
TAF
LFCR 201100Z 2012/2112 VRB02KT 2000 BR VV/// BECMG 2012/2014 CAVOK TEMPO 2020/2106 3000 BR =
LFBA 201100Z 2012/2021 11005KT 2000 BR OVC002 BECMG 2012/2014 CAVOK =
LFSL 201100Z 2012/2021 01004KT CAVOK =
LFLW 201100Z 2012/2021 VRB02KT CAVOK PROB40 TEMPO 2018/2021 3000 BR NSC =
SR / SS: 06:57 / 16:22 UTC (LFCC 2017-11-20)